AirNav   Bose Proflight aviation headeet
 
 955 users online  

AL25 Spratling Field Airport
Roba, Alabama, USA

GOING TO ROBA?


FAA INFORMATION EFFECTIVE 03 JANUARY 2019

Location

FAA Identifier: AL25
Lat/Long: 32-14-32.5270N / 085-36-03.8140W
32-14.542117N / 085-36.063567W
32.2423686 / -85.6010594
(estimated)
Elevation: 368 ft. / 112 m (estimated)
Variation: 01W (1985)
From city: 1 mile W of ROBA, AL
Time zone: UTC -6 (UTC -5 during Daylight Saving Time)
Zip code: 36089

Airport Operations

Airport use: Private use. Permission required prior to landing
Activation date: 09/1979
Control tower: no
ARTCC: ATLANTA CENTER
FSS: ANNISTON FLIGHT SERVICE STATION
Attendance: UNATNDD
Wind indicator: no
Segmented circle: no

Nearby radio navigation aids

VOR radial/distance  VOR name  Freq  Var
TGEr165/15.0TUSKEGEE VOR/DME117.3002E
EUFr304/29.7EUFAULA VORTAC109.2002E
LSFr262/31.3LAWSON VOR/DME111.4002W
MGMr085/36.5MONTGOMERY VORTAC112.1003E
CSGr232/37.1COLUMBUS VORTAC117.1001E

 
NDB name  Hdg/Dist  Freq  Var  ID
LAWSON266/29.533502WAWS .- .-- ...
BLOOD050/35.636504WTOI - --- ..

Airport Services

Runway Information

Runway 9/27

Dimensions: 1600 x 100 ft. / 488 x 30 m
Surface: turf
RUNWAY 9  RUNWAY 27
Traffic pattern: leftleft

Airport Ownership and Management from official FAA records

Ownership: Privately-owned
Owner: B B SPRATLING JR
10170 CO RD 2
ROBA, AL 36089
Phone 205-485-3291
Manager: B B SPRATLING JR
10170 CO RD 2
ROBA, AL 36089
Phone 205-485-3291

Airport Operational Statistics

Aircraft based on the field: 1
Single engine airplanes: 1
    

Instrument Procedures

There are no published instrument procedures at AL25.

Some nearby airports with instrument procedures:

06A - Moton Field Municipal Airport (14 nm N)
11A - Clayton Municipal Airport (22 nm S)
KAUO - Auburn University Regional Airport (24 nm N)
KEUF - Weedon Field Airport (30 nm SE)
KTOI - Troy Municipal Airport at N Kenneth Campbell Field (31 nm SW)
 
Loc | Ops | Rwys | IFR | FBO | Links
Com | Nav | Svcs | Stats | Notes
Area around AL25 (Spratling Field Airport)
 
Road maps at: MapQuest Bing Google
 
Aerial photo
No photo
 
Sectional chart

 
Airport distance calculator
Flying to Spratling Field Airport? Find the distance to fly.

From to AL25

Sunrise and sunset
Times for 21-Jan-2019
 Local
(UTC-6)
 Zulu
(UTC)
Morning civil twilight06:1712:17
Sunrise06:4312:43
Sunset17:0423:04
Evening civil twilight17:3123:31

Current date and time
Zulu (UTC)  22-Jan-2019 01:18:17
Local (UTC-6)  21-Jan-2019 19:18:17
 
METAR
KAUO 
24nm NE 
220056Z AUTO 05005KT CLR 03/M07 A3038 RMK AO2 SLP311 T00331067 PWINO $
KEUF 
30nm SE 
220058Z AUTO 00000KT 10SM CLR 03/M01 A3038 RMK AO2 SLPNO T00281006 $
KLSF 
31nm E 
220056Z AUTO 08005KT 10SM CLR 03/M03 A3039 RMK AO2 SLP299 T00281033
KTOI 
32nm SW 
220053Z AUTO 00000KT 10SM CLR 03/M02 A3037 RMK AO2 SLP285 T00281017
KCSG 
37nm NE 
220051Z 09006KT 10SM CLR 06/M06 A3039 RMK AO2 SLP291 T00561056
KMXF 
40nm W 
220056Z AUTO 05004KT 10SM CLR 05/M04 A3035 RMK AO2 SLP282 T00521044 $
KMGM 
41nm W 
220053Z 00000KT 10SM CLR 04/M04 A3037 RMK AO2 SLP285 T00441039
KALX 
45nm NW 
220055Z AUTO 00000KT 10SM CLR 02/M04 A3036 RMK AO2 T00211045
K1A9 
48nm W 
220055Z AUTO 00000KT 10SM CLR 02/M03 A3036 RMK AO2 T00151026
TAF
KTOI 
32nm SW 
211734Z 2118/2218 04005KT P6SM SCT250 FM220000 10002KT P6SM SKC FM220600 11006KT P6SM SKC
KCSG 
37nm NE 
211727Z 2118/2218 02007KT P6SM SKC FM212000 09005KT P6SM SKC FM221400 10010KT P6SM SCT035 FM221700 10010KT P6SM BKN020
NOTAMs
Click for the latest NOTAMs
NOTAMs are issued by the DoD/FAA and will open in a separate window not controlled by AirNav.

 

 
 

Would you like to see your business listed on this page?

 If your business provides an interesting product or service to pilots, flight crews, aircraft, or users of the Spratling Field Airport, you should consider listing it here.  To start the listing process, click on the button below
 
Add a business
 

Other Pages about Spratling Field Airport

Update a link
 
Copyright © AirNav, LLC. All rights reserved. Privacy Policy  Contact